Mitiwanga, Ohio
Current Conditions -  °F | °C
As of 12:53 AM on Thursday 23 Oct 2014 (Local Time) from KPCW Reporting Station
NA  
Wind Chill: 41°   Ceiling: NA
Heat Index: 44°   Visibility: NA
Dew Point: 41°   Wind: 5mph
Humidity: 90%   Direction: 30°NNE
Pressure: 30.24"   Gusts: NA
Location:  41.3748°N, 82.5554°W
Report Text: KPCW 230453Z AUTO 03004KT 07/05 A3024 RMK AO2 T00660050 $
Loading
Personal Weather Stations






























Interactive Weather Map
Tropical Storm Tracking
New forecast layout! Learn more

10-Day Weather Forecast

Advertisements
Track Severe Weather on mobile